sensor_id;sensor_type;location;lat;lon;timestamp;pressure;altitude;pressure_sealevel;temperature;humidity
74794;BME280;63320;50.768;6.724;2022-12-05T00:01:12;100194.72;;;2.76;85.78
74794;BME280;63320;50.768;6.724;2022-12-05T00:03:38;100193.13;;;2.69;85.66
74794;BME280;63320;50.768;6.724;2022-12-05T00:06:05;100198.38;;;2.66;85.68
74794;BME280;63320;50.768;6.724;2022-12-05T00:08:30;100195.63;;;2.75;85.46
74794;BME280;63320;50.768;6.724;2022-12-05T00:10:55;100205.25;;;2.68;86.19
74794;BME280;63320;50.768;6.724;2022-12-05T00:13:21;100202.69;;;2.67;85.63
74794;BME280;63320;50.768;6.724;2022-12-05T00:15:46;100200.63;;;2.87;85.41
74794;BME280;63320;50.768;6.724;2022-12-05T00:18:11;100202.69;;;2.65;85.49
74794;BME280;63320;50.768;6.724;2022-12-05T00:20:43;100190.34;;;2.79;84.88
74794;BME280;63320;50.768;6.724;2022-12-05T00:23:10;100193.16;;;2.67;84.80
74794;BME280;63320;50.768;6.724;2022-12-05T00:25:36;100207.19;;;2.55;85.72
74794;BME280;63320;50.768;6.724;2022-12-05T00:28:01;100199.94;;;2.77;85.56
74794;BME280;63320;50.768;6.724;2022-12-05T00:30:26;100195.47;;;2.84;85.02
74794;BME280;63320;50.768;6.724;2022-12-05T00:32:52;100195.44;;;2.87;84.75
74794;BME280;63320;50.768;6.724;2022-12-05T00:35:17;100190.50;;;2.70;85.37
74794;BME280;63320;50.768;6.724;2022-12-05T00:37:42;100190.31;;;2.82;84.95
74794;BME280;63320;50.768;6.724;2022-12-05T00:40:09;100193.66;;;2.89;84.72
74794;BME280;63320;50.768;6.724;2022-12-05T00:42:35;100194.66;;;2.82;84.99
74794;BME280;63320;50.768;6.724;2022-12-05T00:45:00;100191.56;;;2.58;84.90
74794;BME280;63320;50.768;6.724;2022-12-05T00:47:26;100190.25;;;2.87;84.37
74794;BME280;63320;50.768;6.724;2022-12-05T00:49:51;100191.06;;;2.89;84.43
74794;BME280;63320;50.768;6.724;2022-12-05T00:52:16;100194.59;;;2.85;85.35
74794;BME280;63320;50.768;6.724;2022-12-05T00:54:42;100197.06;;;2.93;84.52
74794;BME280;63320;50.768;6.724;2022-12-05T00:57:08;100197.41;;;2.73;85.33
74794;BME280;63320;50.768;6.724;2022-12-05T00:59:34;100209.47;;;2.75;84.88
74794;BME280;63320;50.768;6.724;2022-12-05T01:01:59;100204.34;;;2.71;84.70
74794;BME280;63320;50.768;6.724;2022-12-05T01:04:24;100202.69;;;2.67;85.29
74794;BME280;63320;50.768;6.724;2022-12-05T01:06:53;100213.78;;;2.75;85.18
74794;BME280;63320;50.768;6.724;2022-12-05T01:09:19;100213.91;;;2.69;84.63
74794;BME280;63320;50.768;6.724;2022-12-05T01:11:45;100211.34;;;2.66;85.55
74794;BME280;63320;50.768;6.724;2022-12-05T01:14:13;100214.81;;;2.66;84.91
74794;BME280;63320;50.768;6.724;2022-12-05T01:16:41;100212.88;;;2.79;84.79
74794;BME280;63320;50.768;6.724;2022-12-05T01:19:11;100213.88;;;2.72;84.71
74794;BME280;63320;50.768;6.724;2022-12-05T01:21:37;100218.31;;;2.64;84.32
74794;BME280;63320;50.768;6.724;2022-12-05T01:24:02;100209.28;;;2.88;84.15
74794;BME280;63320;50.768;6.724;2022-12-05T01:26:28;100212.97;;;2.73;84.05
74794;BME280;63320;50.768;6.724;2022-12-05T01:28:54;100209.56;;;2.69;83.85
74794;BME280;63320;50.768;6.724;2022-12-05T01:31:23;100220.13;;;2.58;83.98
74794;BME280;63320;50.768;6.724;2022-12-05T01:33:49;100216.03;;;2.44;84.29
74794;BME280;63320;50.768;6.724;2022-12-05T01:36:14;100217.38;;;2.68;83.54
74794;BME280;63320;50.768;6.724;2022-12-05T01:38:41;100218.41;;;2.57;83.80
74794;BME280;63320;50.768;6.724;2022-12-05T01:41:10;100225.66;;;2.37;84.17
74794;BME280;63320;50.768;6.724;2022-12-05T01:43:54;100228.03;;;2.49;83.93
74794;BME280;63320;50.768;6.724;2022-12-05T01:46:22;100235.06;;;2.43;84.36
74794;BME280;63320;50.768;6.724;2022-12-05T01:48:49;100227.38;;;2.35;84.22
74794;BME280;63320;50.768;6.724;2022-12-05T01:51:16;100232.66;;;2.29;83.74
74794;BME280;63320;50.768;6.724;2022-12-05T01:53:42;100239.88;;;2.08;84.55
74794;BME280;63320;50.768;6.724;2022-12-05T01:56:08;100249.28;;;2.17;84.27
74794;BME280;63320;50.768;6.724;2022-12-05T01:58:36;100242.34;;;2.18;84.19
74794;BME280;63320;50.768;6.724;2022-12-05T02:01:02;100243.28;;;2.11;83.85
74794;BME280;63320;50.768;6.724;2022-12-05T02:03:30;100244.03;;;2.20;83.76
74794;BME280;63320;50.768;6.724;2022-12-05T02:05:56;100239.88;;;2.08;83.67
74794;BME280;63320;50.768;6.724;2022-12-05T02:08:23;100234.13;;;1.87;83.77
74794;BME280;63320;50.768;6.724;2022-12-05T02:10:53;100234.88;;;1.93;84.12
74794;BME280;63320;50.768;6.724;2022-12-05T02:13:35;100232.34;;;1.89;84.20
74794;BME280;63320;50.768;6.724;2022-12-05T02:16:11;100240.09;;;1.90;84.15
74794;BME280;63320;50.768;6.724;2022-12-05T02:18:47;100233.16;;;1.92;84.22
74794;BME280;63320;50.768;6.724;2022-12-05T02:21:34;100245.34;;;1.87;84.00
74794;BME280;63320;50.768;6.724;2022-12-05T02:24:25;100235.75;;;1.92;83.69
74794;BME280;63320;50.768;6.724;2022-12-05T02:27:12;100245.34;;;1.86;83.71
74794;BME280;63320;50.768;6.724;2022-12-05T02:30:06;100236.66;;;1.91;84.14
74794;BME280;63320;50.768;6.724;2022-12-05T02:32:39;100230.72;;;1.80;83.94
74794;BME280;63320;50.768;6.724;2022-12-05T02:35:15;100242.06;;;1.70;84.22
74794;BME280;63320;50.768;6.724;2022-12-05T02:37:49;100235.09;;;1.75;84.23
74794;BME280;63320;50.768;6.724;2022-12-05T02:40:21;100234.28;;;1.70;84.51
74794;BME280;63320;50.768;6.724;2022-12-05T02:42:56;100238.31;;;1.94;84.04
74794;BME280;63320;50.768;6.724;2022-12-05T02:45:27;100228.00;;;1.92;83.71
74794;BME280;63320;50.768;6.724;2022-12-05T02:47:54;100234.78;;;1.99;83.81
74794;BME280;63320;50.768;6.724;2022-12-05T02:50:21;100239.25;;;1.90;83.68
74794;BME280;63320;50.768;6.724;2022-12-05T02:52:49;100230.63;;;1.88;84.04
74794;BME280;63320;50.768;6.724;2022-12-05T02:55:18;100231.31;;;2.00;83.85
74794;BME280;63320;50.768;6.724;2022-12-05T02:57:48;100231.44;;;1.93;83.83
74794;BME280;63320;50.768;6.724;2022-12-05T03:00:15;100239.19;;;1.96;83.65
74794;BME280;63320;50.768;6.724;2022-12-05T03:02:42;100236.66;;;1.90;84.11
74794;BME280;63320;50.768;6.724;2022-12-05T03:05:16;100236.78;;;1.79;84.26
74794;BME280;63320;50.768;6.724;2022-12-05T03:07:45;100242.94;;;1.72;84.51
74794;BME280;63320;50.768;6.724;2022-12-05T03:10:13;100243.63;;;1.86;84.07
74794;BME280;63320;50.768;6.724;2022-12-05T03:12:45;100239.25;;;1.91;83.32
74794;BME280;63320;50.768;6.724;2022-12-05T03:15:18;100242.53;;;2.04;84.07
74794;BME280;63320;50.768;6.724;2022-12-05T03:17:50;100243.22;;;2.15;82.71
74794;BME280;63320;50.768;6.724;2022-12-05T03:20:19;100243.56;;;1.89;83.54
74794;BME280;63320;50.768;6.724;2022-12-05T03:22:50;100240.31;;;1.73;84.01
74794;BME280;63320;50.768;6.724;2022-12-05T03:25:18;100247.31;;;1.67;84.01
74794;BME280;63320;50.768;6.724;2022-12-05T03:27:49;100248.84;;;1.83;84.01
74794;BME280;63320;50.768;6.724;2022-12-05T03:30:17;100252.31;;;1.82;83.67
74794;BME280;63320;50.768;6.724;2022-12-05T03:32:48;100246.28;;;1.78;84.04
74794;BME280;63320;50.768;6.724;2022-12-05T03:35:21;100261.06;;;1.70;84.01
74794;BME280;63320;50.768;6.724;2022-12-05T03:37:51;100266.06;;;1.86;84.16
74794;BME280;63320;50.768;6.724;2022-12-05T03:40:26;100261.81;;;1.83;83.95
74794;BME280;63320;50.768;6.724;2022-12-05T03:42:56;100256.66;;;1.78;83.73
74794;BME280;63320;50.768;6.724;2022-12-05T03:45:27;100261.06;;;1.72;84.48
74794;BME280;63320;50.768;6.724;2022-12-05T03:48:04;100262.75;;;1.76;84.31
74794;BME280;63320;50.768;6.724;2022-12-05T03:50:33;100261.78;;;1.86;84.37
74794;BME280;63320;50.768;6.724;2022-12-05T03:53:04;100264.31;;;1.89;83.70
74794;BME280;63320;50.768;6.724;2022-12-05T03:55:32;100266.09;;;1.84;84.15
74794;BME280;63320;50.768;6.724;2022-12-05T03:58:01;100268.13;;;1.59;84.63
74794;BME280;63320;50.768;6.724;2022-12-05T04:00:30;100265.28;;;1.80;84.11
74794;BME280;63320;50.768;6.724;2022-12-05T04:03:03;100276.56;;;1.78;84.15
74794;BME280;63320;50.768;6.724;2022-12-05T04:05:34;100276.69;;;1.64;85.06
74794;BME280;63320;50.768;6.724;2022-12-05T04:08:06;100274.75;;;1.83;84.92
74794;BME280;63320;50.768;6.724;2022-12-05T04:10:36;100274.75;;;1.86;83.78
74794;BME280;63320;50.768;6.724;2022-12-05T04:13:04;100277.25;;;1.91;83.41
74794;BME280;63320;50.768;6.724;2022-12-05T04:15:30;100288.66;;;1.77;84.15
74794;BME280;63320;50.768;6.724;2022-12-05T04:17:59;100283.59;;;1.67;84.77
74794;BME280;63320;50.768;6.724;2022-12-05T04:20:28;100277.44;;;1.74;84.58
74794;BME280;63320;50.768;6.724;2022-12-05T04:22:56;100268.75;;;1.79;83.80
74794;BME280;63320;50.768;6.724;2022-12-05T04:25:24;100277.66;;;1.54;84.39
74794;BME280;63320;50.768;6.724;2022-12-05T04:27:57;100272.66;;;1.37;86.22
74794;BME280;63320;50.768;6.724;2022-12-05T04:30:25;100283.41;;;1.84;85.19
74794;BME280;63320;50.768;6.724;2022-12-05T04:33:00;100274.06;;;1.69;84.64
74794;BME280;63320;50.768;6.724;2022-12-05T04:35:29;100285.22;;;1.77;85.08
74794;BME280;63320;50.768;6.724;2022-12-05T04:38:01;100294.59;;;1.86;84.06
74794;BME280;63320;50.768;6.724;2022-12-05T04:40:33;100289.59;;;1.70;84.74
74794;BME280;63320;50.768;6.724;2022-12-05T04:43:01;100294.66;;;1.81;84.17
74794;BME280;63320;50.768;6.724;2022-12-05T04:45:29;100292.00;;;1.87;84.49
74794;BME280;63320;50.768;6.724;2022-12-05T04:47:57;100294.44;;;2.01;83.84
74794;BME280;63320;50.768;6.724;2022-12-05T04:50:28;100299.63;;;2.01;83.75
74794;BME280;63320;50.768;6.724;2022-12-05T04:52:56;100295.47;;;1.85;84.04
74794;BME280;63320;50.768;6.724;2022-12-05T04:55:24;100294.69;;;1.78;84.49
74794;BME280;63320;50.768;6.724;2022-12-05T04:57:53;100289.16;;;2.08;83.68
74794;BME280;63320;50.768;6.724;2022-12-05T05:00:20;100286.56;;;2.08;83.22
74794;BME280;63320;50.768;6.724;2022-12-05T05:02:48;100284.13;;;1.95;83.04
74794;BME280;63320;50.768;6.724;2022-12-05T05:05:17;100285.34;;;1.66;84.52
74794;BME280;63320;50.768;6.724;2022-12-05T05:07:46;100285.13;;;1.83;83.80
74794;BME280;63320;50.768;6.724;2022-12-05T05:10:15;100281.19;;;1.48;84.43
74794;BME280;63320;50.768;6.724;2022-12-05T05:12:41;100281.38;;;1.28;85.76
74794;BME280;63320;50.768;6.724;2022-12-05T05:15:07;100283.63;;;1.61;85.58
74794;BME280;63320;50.768;6.724;2022-12-05T05:17:33;100290.84;;;1.33;86.12
74794;BME280;63320;50.768;6.724;2022-12-05T05:19:58;100289.06;;;1.41;85.54
74794;BME280;63320;50.768;6.724;2022-12-05T05:22:23;100301.72;;;1.65;84.74
74794;BME280;63320;50.768;6.724;2022-12-05T05:24:50;100296.16;;;2.02;84.32
74794;BME280;63320;50.768;6.724;2022-12-05T05:27:15;100290.56;;;2.32;83.14
74794;BME280;63320;50.768;6.724;2022-12-05T05:29:41;100302.09;;;2.10;82.65
74794;BME280;63320;50.768;6.724;2022-12-05T05:32:06;100296.16;;;2.02;83.62
74794;BME280;63320;50.768;6.724;2022-12-05T05:34:31;100302.34;;;1.89;83.75
74794;BME280;63320;50.768;6.724;2022-12-05T05:36:57;100301.75;;;1.67;84.22
74794;BME280;63320;50.768;6.724;2022-12-05T05:39:22;100305.97;;;1.74;83.86
74794;BME280;63320;50.768;6.724;2022-12-05T05:41:49;100305.09;;;1.73;84.23
74794;BME280;63320;50.768;6.724;2022-12-05T05:44:14;100306.09;;;1.62;84.69
74794;BME280;63320;50.768;6.724;2022-12-05T05:46:39;100296.38;;;1.80;84.73
74794;BME280;63320;50.768;6.724;2022-12-05T05:49:05;100300.88;;;1.66;85.34
74794;BME280;63320;50.768;6.724;2022-12-05T05:51:30;100305.06;;;1.78;84.48
74794;BME280;63320;50.768;6.724;2022-12-05T05:53:56;100303.56;;;1.54;85.19
74794;BME280;63320;50.768;6.724;2022-12-05T05:56:22;100307.34;;;2.04;84.06
74794;BME280;63320;50.768;6.724;2022-12-05T05:58:54;100308.00;;;2.23;83.02
74794;BME280;63320;50.768;6.724;2022-12-05T06:01:20;100303.75;;;2.16;83.19
74794;BME280;63320;50.768;6.724;2022-12-05T06:03:46;100304.63;;;2.16;82.94
74794;BME280;63320;50.768;6.724;2022-12-05T06:06:13;100314.69;;;1.65;83.99
74794;BME280;63320;50.768;6.724;2022-12-05T06:08:40;100322.91;;;1.18;85.51
74794;BME280;63320;50.768;6.724;2022-12-05T06:11:07;100325.41;;;1.25;86.23
74794;BME280;63320;50.768;6.724;2022-12-05T06:13:33;100316.72;;;1.34;85.49
74794;BME280;63320;50.768;6.724;2022-12-05T06:16:00;100318.44;;;1.37;85.24
74794;BME280;63320;50.768;6.724;2022-12-05T06:18:26;100328.94;;;1.21;86.68
74794;BME280;63320;50.768;6.724;2022-12-05T06:20:52;100333.97;;;1.38;85.81
74794;BME280;63320;50.768;6.724;2022-12-05T06:23:17;100333.31;;;1.12;86.61
74794;BME280;63320;50.768;6.724;2022-12-05T06:25:46;100332.25;;;1.34;86.80
74794;BME280;63320;50.768;6.724;2022-12-05T06:28:11;100334.22;;;1.11;86.80
74794;BME280;63320;50.768;6.724;2022-12-05T06:30:37;100333.13;;;1.36;86.49
74794;BME280;63320;50.768;6.724;2022-12-05T06:33:04;100330.13;;;1.77;85.45
74794;BME280;63320;50.768;6.724;2022-12-05T06:35:29;100336.72;;;2.04;84.27
74794;BME280;63320;50.768;6.724;2022-12-05T06:37:54;100335.03;;;2.03;83.78
74794;BME280;63320;50.768;6.724;2022-12-05T06:40:20;100341.56;;;1.57;84.27
74794;BME280;63320;50.768;6.724;2022-12-05T06:42:46;100333.13;;;1.35;85.25
74794;BME280;63320;50.768;6.724;2022-12-05T06:45:11;100336.84;;;1.94;84.68
74794;BME280;63320;50.768;6.724;2022-12-05T06:47:36;100335.06;;;2.00;83.30
74794;BME280;63320;50.768;6.724;2022-12-05T06:50:04;100338.78;;;1.75;84.75
74794;BME280;63320;50.768;6.724;2022-12-05T06:52:29;100336.34;;;1.60;85.08
74794;BME280;63320;50.768;6.724;2022-12-05T06:54:55;100342.94;;;1.90;84.58
74794;BME280;63320;50.768;6.724;2022-12-05T06:57:20;100343.03;;;1.82;84.58
74794;BME280;63320;50.768;6.724;2022-12-05T06:59:46;100336.22;;;1.70;84.63
74794;BME280;63320;50.768;6.724;2022-12-05T07:02:11;100343.03;;;1.82;84.58
74794;BME280;63320;50.768;6.724;2022-12-05T07:04:37;100350.34;;;1.40;84.93
74794;BME280;63320;50.768;6.724;2022-12-05T07:07:04;100352.19;;;1.31;85.21
74794;BME280;63320;50.768;6.724;2022-12-05T07:09:29;100351.06;;;1.54;85.51
74794;BME280;63320;50.768;6.724;2022-12-05T07:11:54;100356.16;;;1.67;85.03
74794;BME280;63320;50.768;6.724;2022-12-05T07:14:20;100355.53;;;1.39;85.50
74794;BME280;63320;50.768;6.724;2022-12-05T07:16:45;100357.28;;;1.35;85.37
74794;BME280;63320;50.768;6.724;2022-12-05T07:19:10;100363.25;;;1.46;86.20
74794;BME280;63320;50.768;6.724;2022-12-05T07:21:36;100353.50;;;1.76;84.90
74794;BME280;63320;50.768;6.724;2022-12-05T07:24:03;100359.56;;;1.72;84.85
74794;BME280;63320;50.768;6.724;2022-12-05T07:26:28;100362.97;;;1.75;84.38
74794;BME280;63320;50.768;6.724;2022-12-05T07:28:54;100371.63;;;1.74;84.46
74794;BME280;63320;50.768;6.724;2022-12-05T07:31:21;100374.19;;;1.77;84.27
74794;BME280;63320;50.768;6.724;2022-12-05T07:33:47;100373.16;;;1.94;83.88
74794;BME280;63320;50.768;6.724;2022-12-05T07:36:14;100370.81;;;1.71;84.30
74794;BME280;63320;50.768;6.724;2022-12-05T07:38:41;100377.56;;;1.87;83.92
74794;BME280;63320;50.768;6.724;2022-12-05T07:41:09;100373.25;;;1.86;84.17
74794;BME280;63320;50.768;6.724;2022-12-05T07:43:35;100387.94;;;1.86;84.63
74794;BME280;63320;50.768;6.724;2022-12-05T07:46:02;100375.94;;;1.75;84.54
74794;BME280;63320;50.768;6.724;2022-12-05T07:48:27;100382.00;;;1.74;84.54
74794;BME280;63320;50.768;6.724;2022-12-05T07:50:52;100378.41;;;1.88;84.55
74794;BME280;63320;50.768;6.724;2022-12-05T07:53:18;100390.53;;;1.87;84.42
74794;BME280;63320;50.768;6.724;2022-12-05T07:55:43;100385.28;;;1.93;83.97
74794;BME280;63320;50.768;6.724;2022-12-05T07:58:10;100390.38;;;2.02;84.31
74794;BME280;63320;50.768;6.724;2022-12-05T08:00:35;100393.63;;;2.20;83.68
74794;BME280;63320;50.768;6.724;2022-12-05T08:03:01;100388.69;;;1.98;83.37
74794;BME280;63320;50.768;6.724;2022-12-05T08:05:26;100395.63;;;1.96;84.12
74794;BME280;63320;50.768;6.724;2022-12-05T08:07:51;100400.03;;;1.87;84.21
74794;BME280;63320;50.768;6.724;2022-12-05T08:10:17;100395.66;;;1.90;84.32
74794;BME280;63320;50.768;6.724;2022-12-05T08:12:42;100399.13;;;1.92;83.77
74794;BME280;63320;50.768;6.724;2022-12-05T08:15:09;100399.09;;;1.94;83.78
74794;BME280;63320;50.768;6.724;2022-12-05T08:17:35;100408.50;;;2.04;84.05
74794;BME280;63320;50.768;6.724;2022-12-05T08:20:00;100408.34;;;2.18;84.03
74794;BME280;63320;50.768;6.724;2022-12-05T08:22:25;100410.31;;;1.97;83.30
74794;BME280;63320;50.768;6.724;2022-12-05T08:24:51;100416.31;;;2.02;83.56
74794;BME280;63320;50.768;6.724;2022-12-05T08:27:16;100414.63;;;1.95;83.66
74794;BME280;63320;50.768;6.724;2022-12-05T08:29:41;100420.69;;;1.97;83.85
74794;BME280;63320;50.768;6.724;2022-12-05T08:32:08;100412.81;;;2.06;84.24
74794;BME280;63320;50.768;6.724;2022-12-05T08:34:33;100411.88;;;2.11;83.55
74794;BME280;63320;50.768;6.724;2022-12-05T08:36:59;100412.81;;;2.06;84.13
74794;BME280;63320;50.768;6.724;2022-12-05T08:39:24;100420.56;;;2.08;83.60
74794;BME280;63320;50.768;6.724;2022-12-05T08:41:50;100425.63;;;2.19;83.38
74794;BME280;63320;50.768;6.724;2022-12-05T08:44:16;100432.56;;;2.18;83.26
74794;BME280;63320;50.768;6.724;2022-12-05T08:46:42;100428.41;;;2.00;84.01
74794;BME280;63320;50.768;6.724;2022-12-05T08:49:10;100431.88;;;1.99;83.67
74794;BME280;63320;50.768;6.724;2022-12-05T08:51:36;100430.09;;;2.04;83.97
74794;BME280;63320;50.768;6.724;2022-12-05T08:54:02;100438.06;;;1.88;84.00
74794;BME280;63320;50.768;6.724;2022-12-05T08:56:27;100448.44;;;1.88;84.29
74794;BME280;63320;50.768;6.724;2022-12-05T08:58:53;100447.44;;;1.99;84.42
74794;BME280;63320;50.768;6.724;2022-12-05T09:01:19;100442.28;;;1.98;84.04
74794;BME280;63320;50.768;6.724;2022-12-05T09:03:45;100432.41;;;2.30;83.44
74794;BME280;63320;50.768;6.724;2022-12-05T09:06:14;100441.91;;;2.33;83.05
74794;BME280;63320;50.768;6.724;2022-12-05T09:08:40;100442.00;;;2.24;82.91
74794;BME280;63320;50.768;6.724;2022-12-05T09:11:06;100437.53;;;2.38;82.77
74794;BME280;63320;50.768;6.724;2022-12-05T09:13:31;100446.34;;;2.20;83.22
74794;BME280;63320;50.768;6.724;2022-12-05T09:15:57;100436.84;;;2.21;83.65
74794;BME280;63320;50.768;6.724;2022-12-05T09:18:22;100438.50;;;2.31;83.36
74794;BME280;63320;50.768;6.724;2022-12-05T09:20:47;100450.88;;;2.00;83.36
74794;BME280;63320;50.768;6.724;2022-12-05T09:23:14;100441.25;;;2.14;84.04
74794;BME280;63320;50.768;6.724;2022-12-05T09:25:39;100449.94;;;2.10;83.72
74794;BME280;63320;50.768;6.724;2022-12-05T09:28:05;100442.88;;;2.24;83.37
74794;BME280;63320;50.768;6.724;2022-12-05T09:30:30;100450.06;;;1.98;84.28
74794;BME280;63320;50.768;6.724;2022-12-05T09:32:55;100454.34;;;2.02;84.88
74794;BME280;63320;50.768;6.724;2022-12-05T09:35:21;100468.94;;;2.11;84.20
74794;BME280;63320;50.768;6.724;2022-12-05T09:37:46;100471.59;;;2.04;83.61
74794;BME280;63320;50.768;6.724;2022-12-05T09:40:16;100461.22;;;2.04;84.56
74794;BME280;63320;50.768;6.724;2022-12-05T09:42:52;100459.19;;;2.34;84.19
74794;BME280;63320;50.768;6.724;2022-12-05T09:45:23;100473.13;;;2.24;83.88
74794;BME280;63320;50.768;6.724;2022-12-05T09:47:54;100474.75;;;2.34;84.31
74794;BME280;63320;50.768;6.724;2022-12-05T09:50:23;100473.31;;;2.05;84.81
74794;BME280;63320;50.768;6.724;2022-12-05T09:52:57;100482.56;;;2.34;84.56
74794;BME280;63320;50.768;6.724;2022-12-05T09:55:29;100486.09;;;2.27;84.80
74794;BME280;63320;50.768;6.724;2022-12-05T09:57:59;100477.28;;;2.43;84.88
74794;BME280;63320;50.768;6.724;2022-12-05T10:00:28;100477.63;;;2.05;84.27
74794;BME280;63320;50.768;6.724;2022-12-05T10:03:01;100481.06;;;2.12;84.79
74794;BME280;63320;50.768;6.724;2022-12-05T10:05:33;100492.25;;;2.14;85.18
74794;BME280;63320;50.768;6.724;2022-12-05T10:08:07;100483.28;;;2.48;84.89
74794;BME280;63320;50.768;6.724;2022-12-05T10:10:45;100479.69;;;2.58;83.63
74794;BME280;63320;50.768;6.724;2022-12-05T10:13:27;100485.31;;;2.19;84.39
74794;BME280;63320;50.768;6.724;2022-12-05T10:15:56;100477.56;;;2.14;84.49
74794;BME280;63320;50.768;6.724;2022-12-05T10:18:28;100473.53;;;1.79;85.16
74794;BME280;63320;50.768;6.724;2022-12-05T10:20:59;100473.59;;;1.73;85.89
74794;BME280;63320;50.768;6.724;2022-12-05T10:23:29;100479.56;;;1.86;86.43
74794;BME280;63320;50.768;6.724;2022-12-05T10:25:59;100474.22;;;2.03;85.69
74794;BME280;63320;50.768;6.724;2022-12-05T10:28:31;100477.03;;;1.77;85.49
74794;BME280;63320;50.768;6.724;2022-12-05T10:31:01;100481.31;;;1.79;85.76
74794;BME280;63320;50.768;6.724;2022-12-05T10:33:37;100482.63;;;2.28;84.80
74794;BME280;63320;50.768;6.724;2022-12-05T10:36:11;100480.56;;;1.65;86.48
74794;BME280;63320;50.768;6.724;2022-12-05T10:38:37;100483.94;;;1.78;86.96
74794;BME280;63320;50.768;6.724;2022-12-05T10:41:05;100484.34;;;1.17;87.04
74794;BME280;63320;50.768;6.724;2022-12-05T10:43:33;100482.53;;;1.29;87.81
74794;BME280;63320;50.768;6.724;2022-12-05T10:46:00;100478.09;;;1.48;88.23
74794;BME280;63320;50.768;6.724;2022-12-05T10:48:26;100484.59;;;2.00;86.41
74794;BME280;63320;50.768;6.724;2022-12-05T10:50:53;100481.59;;;1.44;86.71
74794;BME280;63320;50.768;6.724;2022-12-05T10:53:23;100478.38;;;1.07;87.19
74794;BME280;63320;50.768;6.724;2022-12-05T10:55:51;100480.00;;;1.20;88.15
74794;BME280;63320;50.768;6.724;2022-12-05T10:58:19;100482.22;;;1.77;87.04
74794;BME280;63320;50.768;6.724;2022-12-05T11:00:47;100488.00;;;2.05;86.48
74794;BME280;63320;50.768;6.724;2022-12-05T11:03:23;100476.75;;;2.07;85.60
74794;BME280;63320;50.768;6.724;2022-12-05T11:05:49;100489.13;;;1.78;85.43
74794;BME280;63320;50.768;6.724;2022-12-05T11:08:22;100479.75;;;1.59;85.76
74794;BME280;63320;50.768;6.724;2022-12-05T11:10:48;100483.88;;;1.87;86.26
74794;BME280;63320;50.768;6.724;2022-12-05T11:13:14;100479.34;;;2.09;85.93
74794;BME280;63320;50.768;6.724;2022-12-05T11:15:45;100477.81;;;1.85;85.63
74794;BME280;63320;50.768;6.724;2022-12-05T11:18:17;100477.25;;;1.51;85.58
74794;BME280;63320;50.768;6.724;2022-12-05T11:20:43;100482.38;;;1.57;87.35
74794;BME280;63320;50.768;6.724;2022-12-05T11:23:25;100483.19;;;1.62;87.35
74794;BME280;63320;50.768;6.724;2022-12-05T11:25:51;100484.28;;;1.29;87.91
74794;BME280;63320;50.768;6.724;2022-12-05T11:28:30;100481.78;;;1.17;88.16
74794;BME280;63320;50.768;6.724;2022-12-05T11:30:59;100488.50;;;1.47;87.48
74794;BME280;63320;50.768;6.724;2022-12-05T11:33:25;100484.00;;;1.69;86.94
74794;BME280;63320;50.768;6.724;2022-12-05T11:35:53;100479.69;;;1.69;86.74
74794;BME280;63320;50.768;6.724;2022-12-05T11:38:21;100484.09;;;1.57;86.89
74794;BME280;63320;50.768;6.724;2022-12-05T11:40:52;100482.47;;;1.42;87.11
74794;BME280;63320;50.768;6.724;2022-12-05T11:43:34;100479.78;;;1.54;88.01
74794;BME280;63320;50.768;6.724;2022-12-05T11:46:09;100477.84;;;1.80;86.28
74794;BME280;63320;50.768;6.724;2022-12-05T11:48:46;100475.03;;;2.05;86.66
74794;BME280;63320;50.768;6.724;2022-12-05T11:51:23;100477.13;;;1.63;86.40
74794;BME280;63320;50.768;6.724;2022-12-05T11:54:10;100466.31;;;2.17;85.43
74794;BME280;63320;50.768;6.724;2022-12-05T11:56:45;100469.47;;;1.45;86.29
74794;BME280;63320;50.768;6.724;2022-12-05T11:59:34;100455.94;;;2.14;86.56
74794;BME280;63320;50.768;6.724;2022-12-05T12:02:15;100450.97;;;1.91;85.79
74794;BME280;63320;50.768;6.724;2022-12-05T12:04:49;100463.22;;;1.76;86.49
74794;BME280;63320;50.768;6.724;2022-12-05T12:07:26;100460.75;;;1.58;86.65
74794;BME280;63320;50.768;6.724;2022-12-05T12:10:09;100468.38;;;1.75;86.88
74794;BME280;63320;50.768;6.724;2022-12-05T12:12:45;100463.09;;;1.89;87.35
74794;BME280;63320;50.768;6.724;2022-12-05T12:15:28;100458.03;;;1.76;87.08
74794;BME280;63320;50.768;6.724;2022-12-05T12:18:03;100458.72;;;1.94;85.87
74794;BME280;63320;50.768;6.724;2022-12-05T12:20:36;100462.53;;;1.50;87.35
74794;BME280;63320;50.768;6.724;2022-12-05T12:23:25;100460.34;;;2.05;87.09
74794;BME280;63320;50.768;6.724;2022-12-05T12:26:04;100458.47;;;2.23;85.97
74794;BME280;63320;50.768;6.724;2022-12-05T12:28:38;100453.34;;;2.14;86.19
74794;BME280;63320;50.768;6.724;2022-12-05T12:31:17;100452.69;;;1.93;86.89
74794;BME280;63320;50.768;6.724;2022-12-05T12:33:50;100458.09;;;1.69;87.17
74794;BME280;63320;50.768;6.724;2022-12-05T12:36:24;100455.22;;;2.01;86.41
74794;BME280;63320;50.768;6.724;2022-12-05T12:39:00;100443.69;;;2.29;86.73
74794;BME280;63320;50.768;6.724;2022-12-05T12:41:43;100446.84;;;2.54;85.30
74794;BME280;63320;50.768;6.724;2022-12-05T12:44:44;100453.97;;;2.39;85.06
74794;BME280;63320;50.768;6.724;2022-12-05T12:47:19;100457.22;;;2.57;85.23
74794;BME280;63320;50.768;6.724;2022-12-05T12:49:59;100455.59;;;2.47;84.60
74794;BME280;63320;50.768;6.724;2022-12-05T12:52:40;100455.91;;;2.18;84.63
74794;BME280;63320;50.768;6.724;2022-12-05T12:55:17;100461.66;;;2.45;85.46
74794;BME280;63320;50.768;6.724;2022-12-05T12:57:56;100459.72;;;2.64;84.95
74794;BME280;63320;50.768;6.724;2022-12-05T13:00:33;100458.91;;;2.62;84.71
74794;BME280;63320;50.768;6.724;2022-12-05T13:03:04;100453.53;;;2.77;84.74
74794;BME280;63320;50.768;6.724;2022-12-05T13:05:37;100446.94;;;2.48;84.98
74794;BME280;63320;50.768;6.724;2022-12-05T13:08:13;100448.69;;;2.48;85.46
74794;BME280;63320;50.768;6.724;2022-12-05T13:10:42;100446.13;;;2.43;84.53